sensor_id;sensor_type;location;lat;lon;timestamp;P1;durP1;ratioP1;P2;durP2;ratioP2
52674;SDS011;38569;52.722;6.440;2023-04-12T00:00:25;9.55;;;2.83;;
52674;SDS011;38569;52.722;6.440;2023-04-12T00:02:51;10.75;;;3.15;;
52674;SDS011;38569;52.722;6.440;2023-04-12T00:05:21;13.57;;;3.42;;
52674;SDS011;38569;52.722;6.440;2023-04-12T00:07:47;6.28;;;2.40;;
52674;SDS011;38569;52.722;6.440;2023-04-12T00:10:17;12.13;;;2.97;;
52674;SDS011;38569;52.722;6.440;2023-04-12T00:12:43;9.00;;;2.72;;
52674;SDS011;38569;52.722;6.440;2023-04-12T00:15:11;7.70;;;3.10;;
52674;SDS011;38569;52.722;6.440;2023-04-12T00:17:36;12.02;;;3.60;;
52674;SDS011;38569;52.722;6.440;2023-04-12T00:20:02;12.23;;;3.17;;
52674;SDS011;38569;52.722;6.440;2023-04-12T00:22:35;13.87;;;3.13;;
52674;SDS011;38569;52.722;6.440;2023-04-12T00:25:01;8.52;;;2.67;;
52674;SDS011;38569;52.722;6.440;2023-04-12T00:27:27;10.07;;;3.10;;
52674;SDS011;38569;52.722;6.440;2023-04-12T00:29:53;8.18;;;2.72;;
52674;SDS011;38569;52.722;6.440;2023-04-12T00:32:18;14.18;;;3.20;;
52674;SDS011;38569;52.722;6.440;2023-04-12T00:34:44;14.82;;;3.40;;
52674;SDS011;38569;52.722;6.440;2023-04-12T00:37:10;13.30;;;3.67;;
52674;SDS011;38569;52.722;6.440;2023-04-12T00:39:36;10.77;;;2.83;;
52674;SDS011;38569;52.722;6.440;2023-04-12T00:42:02;10.00;;;2.88;;
52674;SDS011;38569;52.722;6.440;2023-04-12T00:44:29;9.63;;;3.17;;
52674;SDS011;38569;52.722;6.440;2023-04-12T00:47:02;12.77;;;3.05;;
52674;SDS011;38569;52.722;6.440;2023-04-12T00:49:29;11.90;;;4.10;;
52674;SDS011;38569;52.722;6.440;2023-04-12T00:51:57;11.88;;;2.75;;
52674;SDS011;38569;52.722;6.440;2023-04-12T00:54:37;10.82;;;2.88;;
52674;SDS011;38569;52.722;6.440;2023-04-12T00:57:03;7.25;;;2.53;;
52674;SDS011;38569;52.722;6.440;2023-04-12T00:59:29;8.52;;;2.50;;
52674;SDS011;38569;52.722;6.440;2023-04-12T01:01:55;11.02;;;2.97;;
52674;SDS011;38569;52.722;6.440;2023-04-12T01:04:22;10.57;;;2.58;;
52674;SDS011;38569;52.722;6.440;2023-04-12T01:12:24;14.73;;;3.20;;
52674;SDS011;38569;52.722;6.440;2023-04-12T01:15:11;10.30;;;2.65;;
52674;SDS011;38569;52.722;6.440;2023-04-12T01:20:34;8.50;;;2.40;;
52674;SDS011;38569;52.722;6.440;2023-04-12T01:29:17;10.52;;;2.70;;
52674;SDS011;38569;52.722;6.440;2023-04-12T01:32:06;14.02;;;4.10;;
52674;SDS011;38569;52.722;6.440;2023-04-12T01:34:32;11.20;;;2.83;;
52674;SDS011;38569;52.722;6.440;2023-04-12T01:37:00;11.90;;;2.58;;
52674;SDS011;38569;52.722;6.440;2023-04-12T01:39:31;8.75;;;2.33;;
52674;SDS011;38569;52.722;6.440;2023-04-12T01:41:57;13.70;;;2.92;;
52674;SDS011;38569;52.722;6.440;2023-04-12T01:44:23;11.48;;;2.70;;
52674;SDS011;38569;52.722;6.440;2023-04-12T01:46:49;9.18;;;2.80;;
52674;SDS011;38569;52.722;6.440;2023-04-12T01:49:16;12.90;;;2.65;;
52674;SDS011;38569;52.722;6.440;2023-04-12T01:54:24;6.53;;;2.25;;
52674;SDS011;38569;52.722;6.440;2023-04-12T01:56:56;10.52;;;2.42;;
52674;SDS011;38569;52.722;6.440;2023-04-12T01:59:26;10.63;;;3.58;;
52674;SDS011;38569;52.722;6.440;2023-04-12T02:01:55;11.63;;;2.30;;
52674;SDS011;38569;52.722;6.440;2023-04-12T02:04:22;9.90;;;2.20;;
52674;SDS011;38569;52.722;6.440;2023-04-12T02:06:50;13.73;;;3.20;;
52674;SDS011;38569;52.722;6.440;2023-04-12T02:09:16;9.27;;;2.33;;
52674;SDS011;38569;52.722;6.440;2023-04-12T02:11:45;6.78;;;2.40;;
52674;SDS011;38569;52.722;6.440;2023-04-12T02:14:12;11.93;;;2.67;;
52674;SDS011;38569;52.722;6.440;2023-04-12T02:16:38;9.38;;;3.58;;
52674;SDS011;38569;52.722;6.440;2023-04-12T02:19:06;5.90;;;2.72;;
52674;SDS011;38569;52.722;6.440;2023-04-12T02:21:42;7.90;;;2.65;;
52674;SDS011;38569;52.722;6.440;2023-04-12T02:24:10;10.85;;;2.60;;
52674;SDS011;38569;52.722;6.440;2023-04-12T02:26:36;10.38;;;2.72;;
52674;SDS011;38569;52.722;6.440;2023-04-12T02:29:03;10.88;;;2.72;;
52674;SDS011;38569;52.722;6.440;2023-04-12T02:31:33;13.27;;;3.70;;
52674;SDS011;38569;52.722;6.440;2023-04-12T02:34:03;6.28;;;3.10;;
52674;SDS011;38569;52.722;6.440;2023-04-12T02:36:29;10.95;;;2.28;;
52674;SDS011;38569;52.722;6.440;2023-04-12T02:38:55;10.77;;;2.50;;
52674;SDS011;38569;52.722;6.440;2023-04-12T02:41:21;7.15;;;2.42;;
52674;SDS011;38569;52.722;6.440;2023-04-12T02:43:47;14.73;;;3.90;;
52674;SDS011;38569;52.722;6.440;2023-04-12T02:46:14;9.63;;;2.72;;
52674;SDS011;38569;52.722;6.440;2023-04-12T02:48:44;7.38;;;2.25;;
52674;SDS011;38569;52.722;6.440;2023-04-12T02:51:10;9.65;;;2.35;;
52674;SDS011;38569;52.722;6.440;2023-04-12T02:53:36;11.02;;;2.47;;
52674;SDS011;38569;52.722;6.440;2023-04-12T02:56:05;10.45;;;2.22;;
52674;SDS011;38569;52.722;6.440;2023-04-12T02:58:35;10.20;;;1.92;;
52674;SDS011;38569;52.722;6.440;2023-04-12T03:01:02;8.45;;;2.10;;
52674;SDS011;38569;52.722;6.440;2023-04-12T03:03:31;10.68;;;2.28;;
52674;SDS011;38569;52.722;6.440;2023-04-12T03:05:58;7.20;;;2.15;;
52674;SDS011;38569;52.722;6.440;2023-04-12T03:08:24;8.85;;;2.40;;
52674;SDS011;38569;52.722;6.440;2023-04-12T03:10:50;8.98;;;2.05;;
52674;SDS011;38569;52.722;6.440;2023-04-12T03:13:16;4.35;;;1.92;;
52674;SDS011;38569;52.722;6.440;2023-04-12T03:15:41;6.60;;;2.42;;
52674;SDS011;38569;52.722;6.440;2023-04-12T03:18:08;8.77;;;2.90;;
52674;SDS011;38569;52.722;6.440;2023-04-12T03:20:34;6.43;;;2.20;;
52674;SDS011;38569;52.722;6.440;2023-04-12T03:23:01;9.27;;;2.30;;
52674;SDS011;38569;52.722;6.440;2023-04-12T03:25:26;8.38;;;2.53;;
52674;SDS011;38569;52.722;6.440;2023-04-12T03:27:52;10.20;;;2.55;;
52674;SDS011;38569;52.722;6.440;2023-04-12T03:30:18;7.00;;;3.03;;
52674;SDS011;38569;52.722;6.440;2023-04-12T03:32:43;6.07;;;2.67;;
52674;SDS011;38569;52.722;6.440;2023-04-12T03:35:09;9.00;;;2.95;;
52674;SDS011;38569;52.722;6.440;2023-04-12T03:37:35;7.40;;;2.10;;
52674;SDS011;38569;52.722;6.440;2023-04-12T03:40:04;9.68;;;2.42;;
52674;SDS011;38569;52.722;6.440;2023-04-12T03:42:31;12.95;;;2.97;;
52674;SDS011;38569;52.722;6.440;2023-04-12T03:44:57;6.35;;;2.72;;
52674;SDS011;38569;52.722;6.440;2023-04-12T03:47:22;9.38;;;3.13;;
52674;SDS011;38569;52.722;6.440;2023-04-12T03:49:48;7.28;;;3.25;;
52674;SDS011;38569;52.722;6.440;2023-04-12T03:52:14;7.85;;;3.72;;
52674;SDS011;38569;52.722;6.440;2023-04-12T03:54:39;9.15;;;3.88;;
52674;SDS011;38569;52.722;6.440;2023-04-12T03:57:05;12.45;;;3.40;;
52674;SDS011;38569;52.722;6.440;2023-04-12T03:59:31;7.47;;;3.28;;
52674;SDS011;38569;52.722;6.440;2023-04-12T04:01:58;15.05;;;3.30;;
52674;SDS011;38569;52.722;6.440;2023-04-12T04:04:27;8.63;;;3.78;;
52674;SDS011;38569;52.722;6.440;2023-04-12T04:06:53;10.05;;;3.97;;
52674;SDS011;38569;52.722;6.440;2023-04-12T04:09:20;8.93;;;4.10;;
52674;SDS011;38569;52.722;6.440;2023-04-12T04:11:46;9.85;;;3.88;;
52674;SDS011;38569;52.722;6.440;2023-04-12T04:14:14;9.02;;;4.38;;
52674;SDS011;38569;52.722;6.440;2023-04-12T04:16:39;12.45;;;4.38;;
52674;SDS011;38569;52.722;6.440;2023-04-12T04:19:05;12.55;;;4.90;;
52674;SDS011;38569;52.722;6.440;2023-04-12T04:21:31;15.45;;;5.25;;
52674;SDS011;38569;52.722;6.440;2023-04-12T04:23:59;12.98;;;5.32;;
52674;SDS011;38569;52.722;6.440;2023-04-12T04:26:26;8.77;;;4.00;;
52674;SDS011;38569;52.722;6.440;2023-04-12T04:28:58;8.40;;;3.95;;
52674;SDS011;38569;52.722;6.440;2023-04-12T04:31:29;8.07;;;3.65;;
52674;SDS011;38569;52.722;6.440;2023-04-12T04:34:02;11.40;;;4.72;;
52674;SDS011;38569;52.722;6.440;2023-04-12T04:36:31;7.25;;;3.35;;
52674;SDS011;38569;52.722;6.440;2023-04-12T04:38:58;13.80;;;3.50;;
52674;SDS011;38569;52.722;6.440;2023-04-12T04:41:24;5.85;;;3.10;;
52674;SDS011;38569;52.722;6.440;2023-04-12T04:43:50;12.20;;;3.95;;
52674;SDS011;38569;52.722;6.440;2023-04-12T04:46:18;9.93;;;3.40;;
52674;SDS011;38569;52.722;6.440;2023-04-12T04:48:47;13.38;;;2.97;;
52674;SDS011;38569;52.722;6.440;2023-04-12T04:51:16;9.82;;;2.92;;
52674;SDS011;38569;52.722;6.440;2023-04-12T04:53:42;7.75;;;3.55;;
52674;SDS011;38569;52.722;6.440;2023-04-12T04:56:08;11.73;;;3.90;;
52674;SDS011;38569;52.722;6.440;2023-04-12T04:58:34;8.82;;;3.08;;
52674;SDS011;38569;52.722;6.440;2023-04-12T05:01:00;13.77;;;3.65;;
52674;SDS011;38569;52.722;6.440;2023-04-12T05:03:27;8.93;;;3.03;;
52674;SDS011;38569;52.722;6.440;2023-04-12T05:05:53;11.63;;;3.58;;
52674;SDS011;38569;52.722;6.440;2023-04-12T05:08:20;8.95;;;3.75;;
52674;SDS011;38569;52.722;6.440;2023-04-12T05:10:54;7.40;;;3.60;;
52674;SDS011;38569;52.722;6.440;2023-04-12T05:13:20;7.03;;;3.25;;
52674;SDS011;38569;52.722;6.440;2023-04-12T05:15:46;10.57;;;3.47;;
52674;SDS011;38569;52.722;6.440;2023-04-12T05:18:13;13.20;;;3.55;;
52674;SDS011;38569;52.722;6.440;2023-04-12T05:20:39;15.98;;;3.80;;
52674;SDS011;38569;52.722;6.440;2023-04-12T05:23:05;11.43;;;3.67;;
52674;SDS011;38569;52.722;6.440;2023-04-12T05:25:31;12.00;;;3.75;;
52674;SDS011;38569;52.722;6.440;2023-04-12T05:27:57;10.77;;;3.30;;
52674;SDS011;38569;52.722;6.440;2023-04-12T05:30:23;5.30;;;3.25;;
52674;SDS011;38569;52.722;6.440;2023-04-12T05:32:49;10.73;;;3.70;;
52674;SDS011;38569;52.722;6.440;2023-04-12T05:35:14;9.05;;;3.58;;
52674;SDS011;38569;52.722;6.440;2023-04-12T05:37:40;7.00;;;3.33;;
52674;SDS011;38569;52.722;6.440;2023-04-12T05:40:06;9.50;;;3.20;;
52674;SDS011;38569;52.722;6.440;2023-04-12T05:42:34;10.38;;;3.40;;
52674;SDS011;38569;52.722;6.440;2023-04-12T05:45:03;7.63;;;3.20;;
52674;SDS011;38569;52.722;6.440;2023-04-12T05:47:30;7.82;;;3.30;;
52674;SDS011;38569;52.722;6.440;2023-04-12T05:49:56;12.75;;;3.58;;
52674;SDS011;38569;52.722;6.440;2023-04-12T05:52:21;11.35;;;4.45;;
52674;SDS011;38569;52.722;6.440;2023-04-12T05:54:47;6.70;;;2.63;;
52674;SDS011;38569;52.722;6.440;2023-04-12T05:57:13;7.75;;;2.90;;
52674;SDS011;38569;52.722;6.440;2023-04-12T05:59:39;6.57;;;2.72;;
52674;SDS011;38569;52.722;6.440;2023-04-12T06:02:05;10.93;;;3.55;;
52674;SDS011;38569;52.722;6.440;2023-04-12T06:04:32;6.57;;;3.30;;
52674;SDS011;38569;52.722;6.440;2023-04-12T06:06:58;9.73;;;3.85;;
52674;SDS011;38569;52.722;6.440;2023-04-12T06:09:24;11.90;;;4.22;;
52674;SDS011;38569;52.722;6.440;2023-04-12T06:11:50;6.85;;;4.22;;
52674;SDS011;38569;52.722;6.440;2023-04-12T06:14:17;13.65;;;4.43;;
52674;SDS011;38569;52.722;6.440;2023-04-12T06:16:42;8.93;;;3.80;;
52674;SDS011;38569;52.722;6.440;2023-04-12T06:19:08;11.50;;;4.18;;
52674;SDS011;38569;52.722;6.440;2023-04-12T06:21:35;10.15;;;4.30;;
52674;SDS011;38569;52.722;6.440;2023-04-12T06:24:00;9.70;;;4.20;;
52674;SDS011;38569;52.722;6.440;2023-04-12T06:26:26;5.22;;;3.90;;
52674;SDS011;38569;52.722;6.440;2023-04-12T06:28:52;9.63;;;4.75;;
52674;SDS011;38569;52.722;6.440;2023-04-12T06:31:18;11.98;;;4.43;;
52674;SDS011;38569;52.722;6.440;2023-04-12T06:33:46;11.82;;;4.80;;
52674;SDS011;38569;52.722;6.440;2023-04-12T06:36:11;11.07;;;6.13;;
52674;SDS011;38569;52.722;6.440;2023-04-12T06:38:39;10.25;;;4.80;;
52674;SDS011;38569;52.722;6.440;2023-04-12T06:41:05;8.95;;;4.57;;
52674;SDS011;38569;52.722;6.440;2023-04-12T06:43:31;9.30;;;5.18;;
52674;SDS011;38569;52.722;6.440;2023-04-12T06:45:56;15.90;;;5.55;;
52674;SDS011;38569;52.722;6.440;2023-04-12T06:48:22;16.35;;;6.05;;
52674;SDS011;38569;52.722;6.440;2023-04-12T06:50:48;9.02;;;4.80;;
52674;SDS011;38569;52.722;6.440;2023-04-12T06:53:13;12.20;;;5.25;;
52674;SDS011;38569;52.722;6.440;2023-04-12T06:55:39;11.73;;;6.15;;
52674;SDS011;38569;52.722;6.440;2023-04-12T06:58:05;11.55;;;5.32;;
52674;SDS011;38569;52.722;6.440;2023-04-12T07:00:31;12.65;;;5.53;;
52674;SDS011;38569;52.722;6.440;2023-04-12T07:02:57;12.50;;;6.40;;
52674;SDS011;38569;52.722;6.440;2023-04-12T07:05:23;10.93;;;5.20;;
52674;SDS011;38569;52.722;6.440;2023-04-12T07:07:48;12.57;;;5.82;;
52674;SDS011;38569;52.722;6.440;2023-04-12T07:10:14;11.82;;;5.78;;
52674;SDS011;38569;52.722;6.440;2023-04-12T07:12:40;11.13;;;5.63;;
52674;SDS011;38569;52.722;6.440;2023-04-12T07:15:07;9.50;;;5.57;;
52674;SDS011;38569;52.722;6.440;2023-04-12T07:17:33;13.30;;;6.00;;
52674;SDS011;38569;52.722;6.440;2023-04-12T07:19:59;9.88;;;6.75;;
52674;SDS011;38569;52.722;6.440;2023-04-12T07:22:24;12.82;;;5.90;;
52674;SDS011;38569;52.722;6.440;2023-04-12T07:24:50;9.75;;;6.35;;
52674;SDS011;38569;52.722;6.440;2023-04-12T07:27:16;14.50;;;6.72;;
52674;SDS011;38569;52.722;6.440;2023-04-12T07:29:41;10.65;;;6.15;;
52674;SDS011;38569;52.722;6.440;2023-04-12T07:32:08;10.93;;;6.68;;
52674;SDS011;38569;52.722;6.440;2023-04-12T07:34:34;14.80;;;8.75;;
52674;SDS011;38569;52.722;6.440;2023-04-12T07:37:01;10.13;;;6.93;;
52674;SDS011;38569;52.722;6.440;2023-04-12T07:39:27;11.93;;;7.28;;
52674;SDS011;38569;52.722;6.440;2023-04-12T07:41:55;12.73;;;7.60;;
52674;SDS011;38569;52.722;6.440;2023-04-12T07:44:21;10.52;;;6.97;;
52674;SDS011;38569;52.722;6.440;2023-04-12T07:46:47;12.95;;;7.70;;
52674;SDS011;38569;52.722;6.440;2023-04-12T07:49:13;12.40;;;8.18;;
52674;SDS011;38569;52.722;6.440;2023-04-12T07:51:38;16.85;;;8.60;;
52674;SDS011;38569;52.722;6.440;2023-04-12T07:54:06;14.65;;;9.00;;
52674;SDS011;38569;52.722;6.440;2023-04-12T07:56:33;12.35;;;9.82;;
52674;SDS011;38569;52.722;6.440;2023-04-12T07:58:59;18.00;;;10.05;;
52674;SDS011;38569;52.722;6.440;2023-04-12T08:01:25;13.93;;;9.48;;
52674;SDS011;38569;52.722;6.440;2023-04-12T08:03:51;16.60;;;10.45;;
52674;SDS011;38569;52.722;6.440;2023-04-12T08:06:17;15.35;;;10.52;;
52674;SDS011;38569;52.722;6.440;2023-04-12T08:08:42;13.60;;;10.63;;
52674;SDS011;38569;52.722;6.440;2023-04-12T08:11:08;14.65;;;11.27;;
52674;SDS011;38569;52.722;6.440;2023-04-12T08:13:35;18.00;;;11.90;;
52674;SDS011;38569;52.722;6.440;2023-04-12T08:16:00;16.75;;;12.95;;
52674;SDS011;38569;52.722;6.440;2023-04-12T08:18:27;19.00;;;12.85;;
52674;SDS011;38569;52.722;6.440;2023-04-12T08:20:54;16.83;;;13.25;;
52674;SDS011;38569;52.722;6.440;2023-04-12T08:23:23;18.20;;;13.90;;
52674;SDS011;38569;52.722;6.440;2023-04-12T08:25:49;15.73;;;12.88;;
52674;SDS011;38569;52.722;6.440;2023-04-12T08:28:16;14.35;;;12.85;;
52674;SDS011;38569;52.722;6.440;2023-04-12T08:30:42;17.15;;;13.77;;
52674;SDS011;38569;52.722;6.440;2023-04-12T08:33:08;14.32;;;12.07;;
52674;SDS011;38569;52.722;6.440;2023-04-12T08:35:33;15.73;;;13.60;;
52674;SDS011;38569;52.722;6.440;2023-04-12T08:37:59;15.68;;;13.82;;
52674;SDS011;38569;52.722;6.440;2023-04-12T08:40:31;14.68;;;12.73;;
52674;SDS011;38569;52.722;6.440;2023-04-12T08:42:57;17.98;;;13.00;;
52674;SDS011;38569;52.722;6.440;2023-04-12T08:45:28;15.25;;;12.45;;
52674;SDS011;38569;52.722;6.440;2023-04-12T08:47:54;16.33;;;12.82;;
52674;SDS011;38569;52.722;6.440;2023-04-12T08:50:20;14.07;;;12.52;;
52674;SDS011;38569;52.722;6.440;2023-04-12T08:52:46;17.88;;;13.05;;
52674;SDS011;38569;52.722;6.440;2023-04-12T08:55:14;15.45;;;12.65;;
52674;SDS011;38569;52.722;6.440;2023-04-12T08:57:40;13.75;;;12.20;;
52674;SDS011;38569;52.722;6.440;2023-04-12T09:00:07;14.63;;;12.35;;
52674;SDS011;38569;52.722;6.440;2023-04-12T09:02:36;16.98;;;13.77;;
52674;SDS011;38569;52.722;6.440;2023-04-12T09:05:03;15.18;;;11.77;;
52674;SDS011;38569;52.722;6.440;2023-04-12T09:07:30;18.33;;;14.52;;
52674;SDS011;38569;52.722;6.440;2023-04-12T09:09:56;14.82;;;12.90;;
52674;SDS011;38569;52.722;6.440;2023-04-12T09:12:22;16.35;;;13.27;;
52674;SDS011;38569;52.722;6.440;2023-04-12T09:15:08;16.42;;;12.73;;
52674;SDS011;38569;52.722;6.440;2023-04-12T09:17:38;19.77;;;13.45;;
52674;SDS011;38569;52.722;6.440;2023-04-12T09:20:26;13.40;;;12.00;;
52674;SDS011;38569;52.722;6.440;2023-04-12T09:22:51;24.55;;;12.45;;
52674;SDS011;38569;52.722;6.440;2023-04-12T09:25:34;13.77;;;11.50;;
52674;SDS011;38569;52.722;6.440;2023-04-12T09:28:01;14.38;;;10.18;;
52674;SDS011;38569;52.722;6.440;2023-04-12T09:30:28;12.30;;;10.98;;
52674;SDS011;38569;52.722;6.440;2023-04-12T09:32:54;11.50;;;8.95;;
52674;SDS011;38569;52.722;6.440;2023-04-12T09:35:32;16.58;;;10.27;;
52674;SDS011;38569;52.722;6.440;2023-04-12T09:38:10;14.63;;;10.27;;
52674;SDS011;38569;52.722;6.440;2023-04-12T09:40:37;16.13;;;10.02;;
52674;SDS011;38569;52.722;6.440;2023-04-12T09:43:03;14.73;;;10.05;;
52674;SDS011;38569;52.722;6.440;2023-04-12T09:45:33;18.88;;;10.40;;
52674;SDS011;38569;52.722;6.440;2023-04-12T09:48:00;12.75;;;8.63;;
52674;SDS011;38569;52.722;6.440;2023-04-12T09:50:26;11.63;;;8.30;;
52674;SDS011;38569;52.722;6.440;2023-04-12T09:52:53;17.67;;;10.27;;
52674;SDS011;38569;52.722;6.440;2023-04-12T09:55:26;15.98;;;8.60;;
52674;SDS011;38569;52.722;6.440;2023-04-12T09:57:54;26.02;;;11.63;;
52674;SDS011;38569;52.722;6.440;2023-04-12T10:00:21;17.95;;;9.13;;
52674;SDS011;38569;52.722;6.440;2023-04-12T10:02:49;20.55;;;8.98;;
52674;SDS011;38569;52.722;6.440;2023-04-12T10:05:16;15.82;;;8.38;;
52674;SDS011;38569;52.722;6.440;2023-04-12T10:07:43;21.85;;;8.43;;
52674;SDS011;38569;52.722;6.440;2023-04-12T10:10:10;16.10;;;6.40;;
52674;SDS011;38569;52.722;6.440;2023-04-12T10:12:38;13.45;;;6.38;;
52674;SDS011;38569;52.722;6.440;2023-04-12T10:15:05;17.85;;;5.55;;
52674;SDS011;38569;52.722;6.440;2023-04-12T10:17:58;18.63;;;7.07;;
52674;SDS011;38569;52.722;6.440;2023-04-12T10:20:23;13.65;;;6.35;;
52674;SDS011;38569;52.722;6.440;2023-04-12T10:22:49;19.40;;;7.18;;
52674;SDS011;38569;52.722;6.440;2023-04-12T10:25:17;13.00;;;8.00;;
52674;SDS011;38569;52.722;6.440;2023-04-12T10:27:47;17.70;;;7.53;;
52674;SDS011;38569;52.722;6.440;2023-04-12T10:30:31;18.13;;;6.40;;
52674;SDS011;38569;52.722;6.440;2023-04-12T10:35:29;14.98;;;5.88;;
52674;SDS011;38569;52.722;6.440;2023-04-12T10:38:14;14.50;;;4.60;;
52674;SDS011;38569;52.722;6.440;2023-04-12T10:43:42;17.55;;;4.28;;
52674;SDS011;38569;52.722;6.440;2023-04-12T10:49:00;14.32;;;4.10;;
52674;SDS011;38569;52.722;6.440;2023-04-12T10:51:33;11.25;;;4.22;;
52674;SDS011;38569;52.722;6.440;2023-04-12T10:56:43;10.90;;;2.80;;
52674;SDS011;38569;52.722;6.440;2023-04-12T10:59:10;12.43;;;4.80;;
52674;SDS011;38569;52.722;6.440;2023-04-12T11:01:37;16.30;;;3.42;;
52674;SDS011;38569;52.722;6.440;2023-04-12T11:07:01;12.40;;;3.83;;
52674;SDS011;38569;52.722;6.440;2023-04-12T11:09:38;12.15;;;2.90;;
52674;SDS011;38569;52.722;6.440;2023-04-12T11:14:48;13.55;;;3.90;;
52674;SDS011;38569;52.722;6.440;2023-04-12T11:19:41;12.63;;;3.42;;
52674;SDS011;38569;52.722;6.440;2023-04-12T11:22:14;11.40;;;3.78;;
52674;SDS011;38569;52.722;6.440;2023-04-12T11:24:42;15.98;;;3.83;;
52674;SDS011;38569;52.722;6.440;2023-04-12T11:27:12;8.57;;;2.90;;
52674;SDS011;38569;52.722;6.440;2023-04-12T11:29:40;12.73;;;3.75;;
52674;SDS011;38569;52.722;6.440;2023-04-12T11:32:09;10.35;;;3.35;;
52674;SDS011;38569;52.722;6.440;2023-04-12T11:34:39;8.50;;;2.67;;
52674;SDS011;38569;52.722;6.440;2023-04-12T11:37:06;14.10;;;4.32;;
52674;SDS011;38569;52.722;6.440;2023-04-12T11:39:34;9.68;;;3.42;;
52674;SDS011;38569;52.722;6.440;2023-04-12T11:42:02;14.50;;;3.45;;
52674;SDS011;38569;52.722;6.440;2023-04-12T11:44:29;16.42;;;3.22;;
52674;SDS011;38569;52.722;6.440;2023-04-12T11:46:57;12.20;;;2.90;;
52674;SDS011;38569;52.722;6.440;2023-04-12T11:49:23;11.73;;;3.97;;
52674;SDS011;38569;52.722;6.440;2023-04-12T11:51:56;9.93;;;2.78;;
52674;SDS011;38569;52.722;6.440;2023-04-12T11:54:28;13.80;;;3.55;;
52674;SDS011;38569;52.722;6.440;2023-04-12T11:56:55;12.07;;;3.00;;
52674;SDS011;38569;52.722;6.440;2023-04-12T11:59:29;14.13;;;3.05;;
52674;SDS011;38569;52.722;6.440;2023-04-12T12:04:24;10.07;;;2.80;;
52674;SDS011;38569;52.722;6.440;2023-04-12T12:06:50;22.50;;;5.03;;
52674;SDS011;38569;52.722;6.440;2023-04-12T12:09:16;14.85;;;3.45;;
52674;SDS011;38569;52.722;6.440;2023-04-12T12:11:42;10.18;;;3.55;;
52674;SDS011;38569;52.722;6.440;2023-04-12T12:14:08;13.73;;;3.05;;
52674;SDS011;38569;52.722;6.440;2023-04-12T12:16:33;10.85;;;3.03;;
52674;SDS011;38569;52.722;6.440;2023-04-12T12:19:02;14.02;;;2.90;;
52674;SDS011;38569;52.722;6.440;2023-04-12T12:21:28;13.57;;;2.83;;
52674;SDS011;38569;52.722;6.440;2023-04-12T12:23:55;13.18;;;3.15;;
52674;SDS011;38569;52.722;6.440;2023-04-12T12:26:25;20.85;;;4.70;;
52674;SDS011;38569;52.722;6.440;2023-04-12T12:28:55;18.55;;;3.60;;
52674;SDS011;38569;52.722;6.440;2023-04-12T12:31:22;11.45;;;3.22;;
52674;SDS011;38569;52.722;6.440;2023-04-12T12:33:54;11.40;;;3.55;;
52674;SDS011;38569;52.722;6.440;2023-04-12T12:36:27;18.02;;;3.88;;
52674;SDS011;38569;52.722;6.440;2023-04-12T12:39:02;13.80;;;3.83;;
52674;SDS011;38569;52.722;6.440;2023-04-12T12:41:30;16.48;;;4.38;;
52674;SDS011;38569;52.722;6.440;2023-04-12T12:43:56;15.13;;;3.28;;
52674;SDS011;38569;52.722;6.440;2023-04-12T12:46:22;15.43;;;3.53;;
52674;SDS011;38569;52.722;6.440;2023-04-12T12:48:48;11.80;;;4.55;;
52674;SDS011;38569;52.722;6.440;2023-04-12T12:51:14;15.60;;;4.75;;
52674;SDS011;38569;52.722;6.440;2023-04-12T12:53:44;16.10;;;4.28;;
52674;SDS011;38569;52.722;6.440;2023-04-12T12:56:11;18.33;;;3.83;;
52674;SDS011;38569;52.722;6.440;2023-04-12T12:58:38;17.92;;;3.67;;
52674;SDS011;38569;52.722;6.440;2023-04-12T13:01:04;15.68;;;3.90;;
52674;SDS011;38569;52.722;6.440;2023-04-12T13:03:30;15.00;;;3.58;;
52674;SDS011;38569;52.722;6.440;2023-04-12T13:05:56;11.55;;;2.25;;
52674;SDS011;38569;52.722;6.440;2023-04-12T13:08:22;12.23;;;3.22;;
52674;SDS011;38569;52.722;6.440;2023-04-12T13:10:49;15.18;;;4.15;;
52674;SDS011;38569;52.722;6.440;2023-04-12T13:13:15;16.52;;;3.95;;
52674;SDS011;38569;52.722;6.440;2023-04-12T13:15:41;13.82;;;3.20;;
52674;SDS011;38569;52.722;6.440;2023-04-12T13:18:06;18.70;;;5.22;;
52674;SDS011;38569;52.722;6.440;2023-04-12T13:20:32;15.70;;;4.00;;
52674;SDS011;38569;52.722;6.440;2023-04-12T13:22:58;19.42;;;4.57;;
52674;SDS011;38569;52.722;6.440;2023-04-12T13:25:24;14.40;;;3.28;;
52674;SDS011;38569;52.722;6.440;2023-04-12T13:27:50;14.10;;;2.97;;
52674;SDS011;38569;52.722;6.440;2023-04-12T13:30:17;12.55;;;2.95;;
52674;SDS011;38569;52.722;6.440;2023-04-12T13:32:43;10.48;;;2.55;;
52674;SDS011;38569;52.722;6.440;2023-04-12T13:35:09;8.50;;;2.33;;
52674;SDS011;38569;52.722;6.440;2023-04-12T13:37:35;6.65;;;1.65;;
52674;SDS011;38569;52.722;6.440;2023-04-12T13:40:02;6.15;;;1.75;;
52674;SDS011;38569;52.722;6.440;2023-04-12T13:42:28;5.18;;;1.40;;
52674;SDS011;38569;52.722;6.440;2023-04-12T13:44:54;9.45;;;1.83;;
52674;SDS011;38569;52.722;6.440;2023-04-12T13:47:21;10.95;;;2.60;;
52674;SDS011;38569;52.722;6.440;2023-04-12T13:49:46;6.93;;;1.63;;
52674;SDS011;38569;52.722;6.440;2023-04-12T13:52:12;5.97;;;1.52;;
52674;SDS011;38569;52.722;6.440;2023-04-12T13:54:38;7.35;;;3.38;;
52674;SDS011;38569;52.722;6.440;2023-04-12T13:57:05;13.68;;;3.20;;
52674;SDS011;38569;52.722;6.440;2023-04-12T13:59:31;10.10;;;2.67;;
52674;SDS011;38569;52.722;6.440;2023-04-12T14:01:57;9.75;;;2.33;;
52674;SDS011;38569;52.722;6.440;2023-04-12T14:04:26;7.22;;;2.22;;
52674;SDS011;38569;52.722;6.440;2023-04-12T14:06:52;7.50;;;1.98;;
52674;SDS011;38569;52.722;6.440;2023-04-12T14:09:28;13.40;;;3.97;;
52674;SDS011;38569;52.722;6.440;2023-04-12T14:11:56;3.15;;;1.75;;
52674;SDS011;38569;52.722;6.440;2023-04-12T14:14:23;8.50;;;1.90;;
52674;SDS011;38569;52.722;6.440;2023-04-12T14:16:49;11.27;;;2.13;;
52674;SDS011;38569;52.722;6.440;2023-04-12T14:19:18;12.23;;;2.40;;
52674;SDS011;38569;52.722;6.440;2023-04-12T14:21:45;9.15;;;2.05;;
52674;SDS011;38569;52.722;6.440;2023-04-12T14:24:11;6.78;;;1.95;;
52674;SDS011;38569;52.722;6.440;2023-04-12T14:26:38;7.18;;;2.20;;
52674;SDS011;38569;52.722;6.440;2023-04-12T14:29:04;7.28;;;1.95;;
52674;SDS011;38569;52.722;6.440;2023-04-12T14:31:30;8.30;;;2.20;;
52674;SDS011;38569;52.722;6.440;2023-04-12T14:33:56;10.60;;;2.60;;
52674;SDS011;38569;52.722;6.440;2023-04-12T14:36:22;10.55;;;2.15;;
52674;SDS011;38569;52.722;6.440;2023-04-12T14:38:48;10.07;;;2.25;;
52674;SDS011;38569;52.722;6.440;2023-04-12T14:41:14;7.30;;;1.83;;
52674;SDS011;38569;52.722;6.440;2023-04-12T14:43:41;9.90;;;2.75;;
52674;SDS011;38569;52.722;6.440;2023-04-12T14:46:06;6.80;;;2.20;;
52674;SDS011;38569;52.722;6.440;2023-04-12T14:48:32;9.23;;;2.25;;
52674;SDS011;38569;52.722;6.440;2023-04-12T14:50:58;9.27;;;2.30;;
52674;SDS011;38569;52.722;6.440;2023-04-12T14:53:24;11.18;;;2.47;;
52674;SDS011;38569;52.722;6.440;2023-04-12T14:55:49;7.10;;;1.83;;
52674;SDS011;38569;52.722;6.440;2023-04-12T14:58:15;6.53;;;1.77;;
52674;SDS011;38569;52.722;6.440;2023-04-12T15:00:41;9.45;;;2.15;;
52674;SDS011;38569;52.722;6.440;2023-04-12T15:03:06;12.68;;;2.97;;
52674;SDS011;38569;52.722;6.440;2023-04-12T15:05:32;8.95;;;1.95;;
52674;SDS011;38569;52.722;6.440;2023-04-12T15:07:59;10.18;;;2.55;;
52674;SDS011;38569;52.722;6.440;2023-04-12T15:10:25;9.35;;;2.25;;
52674;SDS011;38569;52.722;6.440;2023-04-12T15:12:52;7.72;;;2.95;;
52674;SDS011;38569;52.722;6.440;2023-04-12T15:15:18;10.90;;;2.55;;
52674;SDS011;38569;52.722;6.440;2023-04-12T15:17:44;10.98;;;2.58;;